Terminal Aerodrome Forecast
Issued by NWS Twin Cities, MN

Home | Current Version | Previous Version | Graphics & Text | Print | Product List | Glossary On
Versions: 1 2 3 4 5 6 7 8 9 10 11 12 13 14 15 16 17 18
000
FTUS43 KMPX 161100 RRA
TAFSTC
TAF
KSTC 161138Z 1612/1712 11014G20KT P6SM VCSH OVC040
     FM161400 10017G23KT 4SM -SN OVC030
     FM161500 09016G21KT 1 1/2SM -SN OVC010
      TEMPO 1616/1619 1/4SM +SN VV003
     FM162200 04012G18KT 1 1/2SM -SN VV006
     FM170200 36012G18KT 4SM -SN OVC015
     FM170700 33010G18KT P6SM OVC020=

USA.gov is the U.S. government's official web portal to all federal, state and local government web resources and services.